Time;durP1;ratioP1;P1;durP2;ratioP2;P2;SDS_P1;SDS_P2;PMS_P1;PMS_P2;Temp;Humidity;BMP_temperature;BMP_pressure;BME280_temperature;BME280_humidity;BME280_pressure;Samples;Min_cycle;Max_cycle;Signal;HPM_P1;HPM_P2
2023/08/22 00:02:36;;;;;;;12.50;11.37;;;;;;;;;;6158978;28;20196;-68
2023/08/22 00:05:37;;;;;;;12.67;11.37;;;;;;;;;;6157369;28;20255;-68
2023/08/22 00:08:38;;;;;;;12.57;11.27;;;;;;;;;;6158634;28;20215;-68
2023/08/22 00:11:39;;;;;;;13.10;11.67;;;;;;;;;;6152591;28;20247;-68
2023/08/22 00:14:40;;;;;;;12.07;10.90;;;;;;;;;;6151846;28;20189;-68
2023/08/22 00:17:41;;;;;;;12.80;11.60;;;;;;;;;;6155865;28;20192;-68
2023/08/22 00:20:42;;;;;;;13.00;11.70;;;;;;;;;;6174363;28;20191;-68
2023/08/22 00:23:43;;;;;;;13.30;12.00;;;;;;;;;;6148883;28;20197;-68
2023/08/22 00:26:44;;;;;;;12.77;11.67;;;;;;;;;;6153157;28;20306;-68
2023/08/22 00:29:45;;;;;;;13.10;11.90;;;;;;;;;;6163547;28;20197;-68
2023/08/22 00:32:46;;;;;;;12.63;11.53;;;;;;;;;;6167755;28;20275;-68
2023/08/22 00:35:49;;;;;;;14.27;11.30;;;;;;;;;;6157052;28;20189;-68
2023/08/22 00:38:50;;;;;;;12.43;11.40;;;;;;;;;;6165009;28;20203;-68
2023/08/22 00:41:51;;;;;;;12.50;11.47;;;;;;;;;;6158099;28;20208;-68
2023/08/22 00:44:55;;;;;;;13.77;12.57;;;;;;;;;;6173516;28;20316;-68
2023/08/22 00:47:56;;;;;;;12.97;11.83;;;;;;;;;;6157867;28;20196;-68
2023/08/22 00:50:58;;;;;;;12.33;11.27;;;;;;;;;;6165975;28;20221;-68
2023/08/22 00:53:59;;;;;;;12.30;11.20;;;;;;;;;;6173930;28;20185;-68
2023/08/22 00:57:00;;;;;;;12.30;11.20;;;;;;;;;;6171288;28;20200;-68
2023/08/22 01:00:05;;;;;;;14.13;11.50;;;;;;;;;;6165440;28;20223;-68
2023/08/22 01:03:06;;;;;;;13.37;12.07;;;;;;;;;;6152788;28;20185;-68
2023/08/22 01:06:17;;;;;;;12.93;11.73;;;;;;;;;;6172266;28;20224;-68
2023/08/22 01:09:18;;;;;;;13.27;11.73;;;;;;;;;;6172860;28;20233;-68
2023/08/22 01:12:35;;;;;;;12.73;11.63;;;;;;;;;;6165035;28;20281;-68
2023/08/22 01:15:36;;;;;;;12.97;11.67;;;;;;;;;;6167447;28;20193;-68
2023/08/22 01:18:40;;;;;;;12.80;11.50;;;;;;;;;;6158014;28;20195;-68
2023/08/22 01:21:50;;;;;;;13.30;11.93;;;;;;;;;;6173004;28;20189;-68
2023/08/22 01:24:52;;;;;;;12.97;11.87;;;;;;;;;;6157433;28;20287;-68
2023/08/22 01:27:59;;;;;;;12.03;11.03;;;;;;;;;;6153911;28;20291;-68
2023/08/22 01:31:09;;;;;;;12.80;11.67;;;;;;;;;;6168333;28;20205;-68
2023/08/22 01:34:20;;;;;;;13.40;12.10;;;;;;;;;;6174573;28;20197;-68
2023/08/22 01:37:22;;;;;;;13.03;11.80;;;;;;;;;;6160728;28;20195;-68
2023/08/22 01:40:24;;;;;;;12.47;11.37;;;;;;;;;;6156483;28;20287;-68
2023/08/22 01:43:25;;;;;;;12.67;11.57;;;;;;;;;;6155577;28;20220;-68
2023/08/22 01:46:26;;;;;;;13.17;11.97;;;;;;;;;;6149266;28;20290;-68
2023/08/22 01:49:27;;;;;;;13.07;11.70;;;;;;;;;;6157258;28;20251;-67
2023/08/22 01:52:28;;;;;;;13.10;11.80;;;;;;;;;;6185966;28;20223;-67
2023/08/22 01:55:29;;;;;;;12.40;11.20;;;;;;;;;;6168196;28;20195;-67
2023/08/22 01:58:30;;;;;;;13.87;12.57;;;;;;;;;;6156167;28;20250;-67
2023/08/22 02:01:31;;;;;;;12.57;11.33;;;;;;;;;;6156800;28;20204;-67
2023/08/22 02:04:32;;;;;;;13.73;12.33;;;;;;;;;;6152956;28;20191;-67
2023/08/22 02:07:36;;;;;;;14.33;12.23;;;;;;;;;;6155688;28;20254;-67
2023/08/22 02:10:37;;;;;;;14.00;12.70;;;;;;;;;;6165695;28;20216;-67
2023/08/22 02:13:38;;;;;;;13.47;12.27;;;;;;;;;;6156335;28;20195;-67
2023/08/22 02:16:39;;;;;;;13.60;12.30;;;;;;;;;;6172179;28;20266;-67
2023/08/22 02:19:42;;;;;;;12.47;11.17;;;;;;;;;;6143575;28;20216;-67
2023/08/22 02:22:43;;;;;;;12.77;11.57;;;;;;;;;;6156509;28;20203;-67
2023/08/22 02:25:44;;;;;;;12.67;11.57;;;;;;;;;;6156614;28;20200;-67
2023/08/22 02:28:45;;;;;;;12.83;11.53;;;;;;;;;;6167984;28;20283;-67
2023/08/22 02:31:46;;;;;;;14.30;12.00;;;;;;;;;;6151579;28;20212;-67
2023/08/22 02:34:47;;;;;;;13.50;12.40;;;;;;;;;;6162740;28;20267;-67
2023/08/22 02:37:49;;;;;;;13.67;12.40;;;;;;;;;;6149421;28;20223;-67
2023/08/22 02:40:51;;;;;;;15.77;12.90;;;;;;;;;;6186692;28;20193;-67
2023/08/22 02:43:52;;;;;;;12.70;11.50;;;;;;;;;;6155329;28;20202;-67
2023/08/22 02:46:53;;;;;;;13.33;12.03;;;;;;;;;;6170627;28;20198;-67
2023/08/22 02:49:54;;;;;;;15.13;11.27;;;;;;;;;;6167991;28;20258;-67
2023/08/22 02:52:55;;;;;;;13.10;12.00;;;;;;;;;;6170957;28;20277;-67
2023/08/22 02:55:57;;;;;;;13.30;12.10;;;;;;;;;;6162372;28;20190;-68
2023/08/22 02:58:58;;;;;;;14.53;13.03;;;;;;;;;;6163455;28;20196;-68
2023/08/22 03:01:59;;;;;;;13.90;12.50;;;;;;;;;;6162725;28;20246;-68
2023/08/22 03:05:00;;;;;;;13.63;12.27;;;;;;;;;;6172627;28;20230;-68
2023/08/22 03:08:01;;;;;;;13.70;12.13;;;;;;;;;;6164733;28;20251;-68
2023/08/22 03:11:02;;;;;;;14.00;12.60;;;;;;;;;;6164922;28;20223;-68
2023/08/22 03:14:04;;;;;;;13.27;12.07;;;;;;;;;;6160983;28;20200;-68
2023/08/22 03:17:05;;;;;;;14.47;13.00;;;;;;;;;;6156300;28;20192;-68
2023/08/22 03:20:06;;;;;;;14.10;12.80;;;;;;;;;;6164123;28;20188;-68
2023/08/22 03:23:07;;;;;;;12.93;11.57;;;;;;;;;;6159705;28;20197;-68
2023/08/22 03:26:10;;;;;;;14.73;12.93;;;;;;;;;;6162753;28;20212;-68
2023/08/22 03:29:11;;;;;;;14.00;12.47;;;;;;;;;;6182170;28;20226;-68
2023/08/22 03:32:13;;;;;;;14.70;13.40;;;;;;;;;;6155723;28;20215;-68
2023/08/22 03:35:14;;;;;;;12.87;11.70;;;;;;;;;;6161699;28;20205;-68
2023/08/22 03:38:15;;;;;;;13.13;11.80;;;;;;;;;;6161953;28;20195;-68
2023/08/22 03:41:16;;;;;;;13.27;12.07;;;;;;;;;;6160913;28;20187;-68
2023/08/22 03:44:17;;;;;;;14.33;12.93;;;;;;;;;;6154604;28;20254;-68
2023/08/22 03:47:18;;;;;;;13.07;11.77;;;;;;;;;;6175469;28;20199;-68
2023/08/22 03:50:19;;;;;;;12.97;11.77;;;;;;;;;;6164695;28;20202;-68
2023/08/22 03:53:20;;;;;;;13.13;11.93;;;;;;;;;;6162455;28;20279;-68
2023/08/22 03:56:21;;;;;;;13.90;12.60;;;;;;;;;;6162575;28;20206;-68
2023/08/22 03:59:22;;;;;;;13.63;12.23;;;;;;;;;;6157134;28;20204;-68
2023/08/22 04:02:23;;;;;;;14.93;12.73;;;;;;;;;;6154971;28;20203;-68
2023/08/22 04:05:24;;;;;;;13.87;12.63;;;;;;;;;;6156518;28;20196;-69
2023/08/22 04:08:26;;;;;;;14.97;13.47;;;;;;;;;;6172701;28;20208;-68
2023/08/22 04:11:27;;;;;;;14.57;13.17;;;;;;;;;;6171323;28;20220;-68
2023/08/22 04:14:28;;;;;;;14.83;13.27;;;;;;;;;;6156102;28;20188;-68
2023/08/22 04:17:28;;;;;;;14.63;12.67;;;19.90;88.50;;;;;;6172726;28;20195;-68
2023/08/22 04:20:29;;;;;;;14.30;12.90;;;19.70;88.50;;;;;;6172079;28;20213;-68
2023/08/22 04:23:29;;;;;;;14.17;12.87;;;19.70;88.70;;;;;;6156108;28;20280;-68
2023/08/22 04:26:30;;;;;;;14.23;12.83;;;19.70;88.70;;;;;;6164146;28;20189;-68
2023/08/22 04:29:31;;;;;;;14.60;13.13;;;19.70;88.50;;;;;;6159234;28;20188;-68
2023/08/22 04:32:32;;;;;;;16.97;13.07;;;19.70;88.60;;;;;;6159206;28;20220;-68
2023/08/22 04:35:33;;;;;;;14.00;12.57;;;19.70;88.80;;;;;;6155267;28;20188;-68
2023/08/22 04:38:33;;;;;;;14.03;12.63;;;19.70;88.90;;;;;;6160522;28;20220;-68
2023/08/22 04:41:34;;;;;;;14.27;12.83;;;19.70;88.80;;;;;;6141894;28;20192;-68
2023/08/22 04:44:35;;;;;;;15.50;13.37;;;19.70;89.00;;;;;;6164376;28;20199;-68
2023/08/22 04:47:35;;;;;;;14.43;13.00;;;19.70;88.70;;;;;;6131875;28;20198;-68
2023/08/22 04:50:36;;;;;;;14.03;12.83;;;19.70;88.40;;;;;;6156676;28;20208;-68
2023/08/22 04:53:37;;;;;;;14.57;13.03;;;19.70;88.40;;;;;;6151637;28;20196;-68
2023/08/22 04:56:37;;;;;;;13.20;12.00;;;19.70;88.60;;;;;;6173237;28;20184;-68
2023/08/22 04:59:38;;;;;;;14.57;13.20;;;19.70;88.60;;;;;;6167379;28;20200;-68
2023/08/22 05:02:38;;;;;;;15.70;13.23;;;19.70;88.50;;;;;;6161192;28;20200;-68
2023/08/22 05:05:39;;;;;;;14.13;12.47;;;19.70;89.10;;;;;;6161486;28;20208;-68
2023/08/22 05:08:41;;;;;;;14.73;13.30;;;19.80;89.20;;;;;;6155956;28;20229;-68
2023/08/22 05:11:41;;;;;;;14.50;13.00;;;19.70;89.10;;;;;;6157031;28;20225;-68
2023/08/22 05:14:42;;;;;;;14.60;13.10;;;19.80;89.40;;;;;;6158439;28;20196;-68
2023/08/22 05:17:43;;;;;;;14.13;12.60;;;19.80;89.60;;;;;;6160459;28;20280;-69
2023/08/22 05:20:43;;;;;;;14.77;13.40;;;19.90;89.40;;;;;;6156372;28;20220;-69
2023/08/22 05:23:44;;;;;;;14.80;13.40;;;19.90;89.70;;;;;;6138683;28;20203;-69
2023/08/22 05:26:45;;;;;;;14.13;12.73;;;19.90;89.20;;;;;;6153332;28;20287;-69
2023/08/22 05:29:45;;;;;;;14.70;13.23;;;19.90;89.50;;;;;;6137865;28;20196;-69
2023/08/22 05:32:46;;;;;;;15.87;14.00;;;20.00;89.70;;;;;;6156435;28;20306;-69
2023/08/22 05:35:47;;;;;;;15.00;13.47;;;;;;;;;;6139354;28;20200;-69
2023/08/22 05:38:48;;;;;;;14.87;13.30;;;;;;;;;;6157399;28;20224;-69
2023/08/22 05:41:51;;;;;;;14.27;12.87;;;;;;;;;;6156519;28;20196;-68
2023/08/22 05:44:52;;;;;;;16.10;13.70;;;;;;;;;;6166089;28;20200;-68
2023/08/22 05:47:53;;;;;;;15.40;13.90;;;;;;;;;;6154659;28;20200;-69
2023/08/22 05:50:54;;;;;;;15.27;13.77;;;20.00;90.00;;;;;;6149080;28;20216;-69
2023/08/22 05:53:54;;;;;;;15.57;14.07;;;20.10;89.70;;;;;;6159180;28;20238;-69
2023/08/22 05:56:55;;;;;;;15.67;14.10;;;20.10;89.70;;;;;;6163761;28;20188;-69
2023/08/22 05:59:56;;;;;;;16.20;13.10;;;20.20;89.90;;;;;;6156337;28;20220;-69
2023/08/22 06:02:57;;;;;;;14.40;12.93;;;20.20;89.50;;;;;;6167694;28;20200;-69
2023/08/22 06:05:57;;;;;;;15.07;13.57;;;20.30;89.10;;;;;;6152465;28;20250;-69
2023/08/22 06:08:58;;;;;;;15.87;13.50;;;20.30;89.30;;;;;;6156766;28;20192;-69
2023/08/22 06:11:59;;;;;;;15.53;13.33;;;20.30;89.10;;;;;;6155491;28;20212;-69
2023/08/22 06:14:59;;;;;;;14.90;13.47;;;20.30;89.00;;;;;;6138432;28;20228;-69
2023/08/22 06:18:00;;;;;;;15.87;14.27;;;20.40;88.70;;;;;;6155592;28;20200;-69
2023/08/22 06:21:01;;;;;;;15.63;14.07;;;20.50;88.40;;;;;;6157123;28;20279;-69
2023/08/22 06:24:02;;;;;;;14.57;13.07;;;20.50;88.40;;;;;;6155178;28;20192;-69
2023/08/22 06:27:03;;;;;;;17.57;14.30;;;20.50;86.70;;;;;;6157795;28;20200;-69
2023/08/22 06:30:04;;;;;;;14.67;13.17;;;20.50;87.50;;;;;;6155719;28;20198;-69
2023/08/22 06:33:05;;;;;;;14.33;12.83;;;20.50;86.50;;;;;;6171251;28;20223;-69
2023/08/22 06:36:06;;;;;;;14.80;13.43;;;20.60;85.70;;;;;;6140005;28;20223;-69
2023/08/22 06:39:07;;;;;;;15.50;12.53;;;;;;;;;;6141702;28;20276;-69
2023/08/22 06:42:08;;;;;;;14.60;13.17;;;;;;;;;;6171588;28;20180;-69
2023/08/22 06:45:09;;;;;;;15.70;13.40;;;;;;;;;;6170856;28;20193;-69
2023/08/22 06:48:10;;;;;;;14.77;13.37;;;;;;;;;;6155111;28;20185;-69
2023/08/22 06:51:11;;;;;;;15.23;13.60;;;;;;;;;;6156615;28;20340;-69
2023/08/22 06:54:12;;;;;;;15.03;13.40;;;;;;;;;;6144709;28;20196;-69
2023/08/22 06:57:13;;;;;;;16.43;13.07;;;;;;;;;;6146939;28;20255;-68
2023/08/22 07:00:16;;;;;;;13.90;12.60;;;;;;;;;;6172586;28;20191;-68
2023/08/22 07:03:17;;;;;;;15.80;14.00;;;;;;;;;;6170626;28;20202;-68
2023/08/22 07:06:18;;;;;;;15.33;13.70;;;;;;;;;;6159956;28;20236;-68
2023/08/22 07:09:19;;;;;;;14.70;13.20;;;;;;;;;;6175537;28;20204;-68
2023/08/22 07:12:20;;;;;;;16.33;13.87;;;20.80;86.50;;;;;;6153459;28;20221;-69
2023/08/22 07:15:21;;;;;;;15.33;13.73;;;21.10;86.60;;;;;;6172873;28;20222;-69
2023/08/22 07:18:21;;;;;;;14.80;12.63;;;21.10;85.90;;;;;;6156837;28;20278;-68
2023/08/22 07:21:22;;;;;;;18.30;14.23;;;21.20;85.60;;;;;;6171624;28;20203;-69
2023/08/22 07:24:23;;;;;;;15.73;14.13;;;;;;;;;;6155412;28;20218;-69
2023/08/22 07:27:24;;;;;;;15.07;13.57;;;;;;;;;;6154750;28;20193;-69
2023/08/22 07:30:25;;;;;;;17.90;14.40;;;;;;;;;;6170868;28;20197;-69
2023/08/22 07:33:26;;;;;;;15.03;13.53;;;24.00;50.00;;;;;;6153795;28;20193;-69
2023/08/22 07:36:27;;;;;;;13.90;12.60;;;21.50;84.70;;;;;;6157649;28;20200;-69
2023/08/22 07:39:28;;;;;;;18.20;14.07;;;;;;;;;;6157418;28;20192;-68
2023/08/22 07:42:29;;;;;;;16.13;13.97;;;;;;;;;;6159877;28;20192;-68
2023/08/22 07:45:30;;;;;;;14.60;13.10;;;;;;;;;;6162081;28;20196;-68
2023/08/22 07:48:32;;;;;;;14.90;13.50;;;;;;;;;;6156584;28;20210;-68
2023/08/22 07:51:35;;;;;;;17.20;13.63;;;;;;;;;;6175680;28;20240;-68
2023/08/22 07:54:36;;;;;;;14.33;13.03;;;;;;;;;;6159334;28;20204;-69
2023/08/22 07:57:37;;;;;;;14.17;12.77;;;;;;;;;;6153116;28;20262;-68
2023/08/22 08:00:38;;;;;;;15.53;14.03;;;;;;;;;;6164525;28;20195;-69
2023/08/22 08:03:39;;;;;;;14.67;13.33;;;;;;;;;;6172374;28;20189;-68
2023/08/22 08:06:41;;;;;;;17.13;14.60;;;;;;;;;;6159500;28;20235;-68
2023/08/22 08:09:42;;;;;;;14.47;12.90;;;;;;;;;;6156985;28;20196;-69
2023/08/22 08:12:43;;;;;;;15.43;13.97;;;;;;;;;;6172359;28;20275;-69
2023/08/22 08:15:43;;;;;;;15.40;13.80;;;21.60;84.40;;;;;;6158166;28;20197;-69
2023/08/22 08:18:44;;;;;;;13.87;12.57;;;22.70;83.10;;;;;;6157846;28;20228;-69
2023/08/22 08:21:45;;;;;;;13.70;12.43;;;22.60;82.60;;;;;;6129728;28;20202;-69
2023/08/22 08:24:46;;;;;;;15.60;14.10;;;;;;;;;;6126245;28;20197;-69
2023/08/22 08:27:47;;;;;;;14.77;13.30;;;;;;;;;;6159572;28;20234;-69
2023/08/22 08:30:48;;;;;;;13.63;12.17;;;;;;;;;;6174995;28;20224;-69
2023/08/22 08:33:49;;;;;;;14.03;12.53;;;;;;;;;;6170916;28;20197;-69
2023/08/22 08:36:50;;;;;;;13.87;12.57;;;;;;;;;;6157828;28;20275;-69
2023/08/22 08:39:51;;;;;;;13.30;12.10;;;;;;;;;;6179293;28;20216;-69
2023/08/22 08:42:52;;;;;;;14.30;12.23;;;;;;;;;;6164505;28;20204;-70
2023/08/22 08:45:54;;;;;;;13.13;11.93;;;;;;;;;;6154573;28;20199;-69
2023/08/22 08:48:55;;;;;;;12.43;11.33;;;23.50;77.50;;;;;;6151085;28;20262;-69
2023/08/22 08:51:57;;;;;;;14.07;11.50;;;;;;;;;;6159219;28;20311;-69
2023/08/22 08:54:59;;;;;;;13.97;12.67;;;;;;;;;;6178779;28;20251;-69
2023/08/22 08:58:00;;;;;;;12.37;11.17;;;;;;;;;;6159466;28;20188;-69
2023/08/22 09:01:01;;;;;;;13.13;12.03;;;;;;;;;;6153968;28;20203;-69
2023/08/22 09:04:02;;;;;;;13.10;11.90;;;;;;;;;;6176029;28;20295;-70
2023/08/22 09:07:04;;;;;;;15.17;11.70;;;;;;;;;;6148882;28;20248;-69
2023/08/22 09:10:06;;;;;;;12.87;11.77;;;;;;;;;;6148047;28;20204;-69
2023/08/22 09:13:07;;;;;;;12.47;11.47;;;;;;;;;;6166418;28;20216;-69
2023/08/22 09:16:08;;;;;;;13.93;12.73;;;;;;;;;;6173403;28;20188;-70
2023/08/22 09:19:11;;;;;;;13.00;11.83;;;;;;;;;;6184624;28;20190;-70
2023/08/22 09:22:15;;;;;;;12.90;11.50;;;;;;;;;;6164894;28;20218;-70
2023/08/22 09:25:17;;;;;;;14.10;12.60;;;;;;;;;;6174534;28;20201;-70
2023/08/22 09:28:18;;;;;;;14.20;13.00;;;;;;;;;;6179881;28;20196;-70
2023/08/22 09:31:23;;;;;;;14.37;12.47;;;;;;;;;;6146609;28;20211;-70
2023/08/22 09:34:24;;;;;;;14.27;12.80;;;;;;;;;;6172821;28;20199;-70
2023/08/22 09:37:32;;;;;;;13.30;11.33;;;;;;;;;;6163873;28;20244;-70
2023/08/22 09:40:33;;;;;;;12.80;11.67;;;;;;;;;;6171662;28;20200;-70
2023/08/22 09:43:39;;;;;;;12.33;11.13;;;;;;;;;;6156408;28;20196;-69
2023/08/22 09:46:44;;;;;;;12.13;10.93;;;;;;;;;;6155462;28;20245;-69
2023/08/22 09:49:49;;;;;;;11.90;10.73;;;;;;;;;;6167291;28;20217;-70
2023/08/22 09:52:50;;;;;;;11.97;10.77;;;;;;;;;;6164893;28;20205;-70
2023/08/22 09:55:52;;;;;;;10.80;9.13;;;;;;;;;;6155330;28;20199;-69
2023/08/22 09:58:53;;;;;;;11.17;9.93;;;;;;;;;;6158085;28;20201;-69
2023/08/22 10:01:55;;;;;;;10.47;9.37;;;;;;;;;;6172599;28;20196;-69
2023/08/22 10:04:56;;;;;;;10.43;9.27;;;;;;;;;;6169335;28;20196;-70
2023/08/22 10:07:58;;;;;;;10.33;9.37;;;;;;;;;;6158498;28;20251;-69
2023/08/22 10:10:59;;;;;;;12.93;10.27;;;;;;;;;;6172440;28;20231;-69
2023/08/22 10:14:00;;;;;;;10.90;9.90;;;;;;;;;;6165138;28;20666;-69
2023/08/22 10:17:02;;;;;;;11.17;10.13;;;;;;;;;;6154324;28;20220;-69
2023/08/22 10:20:07;;;;;;;9.90;9.00;;;;;;;;;;6155019;28;20202;-69
2023/08/22 10:23:09;;;;;;;9.97;9.00;;;;;;;;;;6164228;28;20197;-69
2023/08/22 10:26:10;;;;;;;9.97;9.17;;;;;;;;;;6155787;28;20200;-69
2023/08/22 10:29:15;;;;;;;9.63;8.47;;;;;;;;;;6157575;28;20195;-69
2023/08/22 10:32:16;;;;;;;9.53;8.73;;;;;;;;;;6151908;28;20228;-69
2023/08/22 10:35:17;;;;;;;9.40;8.43;;;;;;;;;;6165077;28;20204;-69
2023/08/22 10:38:21;;;;;;;8.97;8.23;;;;;;;;;;6166842;28;20240;-69
2023/08/22 10:41:23;;;;;;;9.97;9.07;;;;;;;;;;6166918;28;20204;-70
2023/08/22 10:44:30;;;;;;;10.00;9.03;;;;;;;;;;6171037;28;20234;-69
2023/08/22 10:47:31;;;;;;;10.93;10.03;;;;;;;;;;6185962;28;20197;-69
2023/08/22 10:50:32;;;;;;;9.63;8.70;;;;;;;;;;6164616;28;20189;-69
2023/08/22 10:53:44;;;;;;;9.13;8.30;;;;;;;;;;6156787;28;20200;-69
2023/08/22 10:56:45;;;;;;;8.87;8.07;;;;;;;;;;6172176;28;20200;-69
2023/08/22 11:00:13;;;;;;;8.13;7.43;;;;;;;;;;6172250;28;20195;-69
2023/08/22 11:03:15;;;;;;;7.50;6.77;;;;;;;;;;6168785;28;20192;-69
2023/08/22 11:06:20;;;;;;;7.83;7.03;;;;;;;;;;6158008;28;20250;-69
2023/08/22 11:09:21;;;;;;;6.37;5.77;;;;;;;;;;6176267;28;20193;-69
2023/08/22 11:12:23;;;;;;;7.53;6.90;;;;;;;;;;6160169;28;20263;-70
2023/08/22 11:15:24;;;;;;;7.83;7.00;;;;;;;;;;6175068;28;20195;-70
2023/08/22 11:18:25;;;;;;;7.27;6.60;;;;;;;;;;6173308;28;20201;-69
2023/08/22 11:21:26;;;;;;;6.30;5.80;;;;;;;;;;6160664;28;20215;-69
2023/08/22 11:24:27;;;;;;;6.37;5.87;;;;;;;;;;6176676;28;20195;-69
2023/08/22 11:27:28;;;;;;;6.57;5.80;;;;;;;;;;6153676;28;20197;-69
2023/08/22 11:30:29;;;;;;;7.00;6.40;;;;;;;;;;6152228;28;20194;-69
2023/08/22 11:33:38;;;;;;;6.13;5.53;;;;;;;;;;6163086;28;20194;-69
2023/08/22 11:36:39;;;;;;;5.90;5.40;;;;;;;;;;6164800;28;20316;-69
2023/08/22 11:39:40;;;;;;;7.40;6.37;;;;;;;;;;6176840;28;20206;-69
2023/08/22 11:42:42;;;;;;;7.20;6.33;;;;;;;;;;6176089;28;20280;-69
2023/08/22 11:45:46;;;;;;;6.93;6.27;;;;;;;;;;6170942;28;20208;-69
2023/08/22 11:48:50;;;;;;;6.97;6.27;;;;;;;;;;6175515;28;20189;-69
2023/08/22 11:51:54;;;;;;;6.23;5.60;;;;;;;;;;6176815;28;20215;-69
2023/08/22 11:55:08;;;;;;;6.70;6.20;;;;;;;;;;6162302;28;20200;-69
2023/08/22 11:58:15;;;;;;;6.20;5.70;;;;;;;;;;6167884;28;20181;-69
2023/08/22 12:01:16;;;;;;;6.20;5.70;;;;;;;;;;6163033;28;20204;-69
2023/08/22 12:04:17;;;;;;;6.70;6.10;;;;;;;;;;6158613;28;20211;-69
2023/08/22 12:07:18;;;;;;;6.13;5.50;;;;;;;;;;6172340;28;20248;-69
2023/08/22 12:10:19;;;;;;;5.90;5.30;;;;;;;;;;6156693;28;20197;-69
2023/08/22 12:13:21;;;;;;;5.73;5.27;;;35.20;43.70;;;;;;6169212;28;20220;-69
2023/08/22 12:16:22;;;;;;;5.90;5.40;;;;;;;;;;6158032;28;20196;-69
2023/08/22 12:19:23;;;;;;;6.32;5.80;;;39.40;41.20;;;;;;6161645;28;20199;-69
2023/08/22 12:22:24;;;;;;;6.80;6.30;;;41.10;37.70;;;;;;6158976;28;20439;-69
2023/08/22 12:25:24;;;;;;;5.78;5.28;;;43.10;35.20;;;;;;6156591;28;20219;-69
2023/08/22 12:28:25;;;;;;;5.93;5.40;;;44.50;33.60;;;;;;6157295;28;20254;-69
2023/08/22 12:31:31;;;;;;;6.68;4.68;;;45.80;31.70;;;;;;6148916;28;20212;-70
2023/08/22 12:34:32;;;;;;;5.93;5.43;;;46.30;31.00;;;;;;6157023;28;20216;-70
2023/08/22 12:37:32;;;;;;;5.20;4.80;;;46.10;31.10;;;;;;6147238;28;20193;-70
2023/08/22 12:40:33;;;;;;;3.83;3.53;;;46.40;28.90;;;;;;6157739;28;20204;-69
2023/08/22 12:43:34;;;;;;;4.00;3.70;;;46.10;27.20;;;;;;6150708;28;20194;-69
2023/08/22 12:46:34;;;;;;;3.33;3.13;;;45.50;28.90;;;;;;6153146;28;20203;-69
2023/08/22 12:49:35;;;;;;;3.60;3.30;;;45.40;28.70;;;;;;6151596;28;20196;-69
2023/08/22 12:52:37;;;;;;;3.88;3.58;;;45.90;29.20;;;;;;6161004;28;20228;-69
2023/08/22 12:55:40;;;;;;;3.65;3.45;;;46.50;28.10;;;;;;6148780;28;20207;-69
2023/08/22 12:58:41;;;;;;;3.75;3.45;;;47.00;28.00;;;;;;6157161;28;20220;-69
2023/08/22 13:01:42;;;;;;;4.25;3.95;;;47.70;28.50;;;;;;6142704;28;20196;-69
2023/08/22 13:04:42;;;;;;;5.60;4.20;;;48.30;27.80;;;;;;6165408;28;20192;-69
2023/08/22 13:07:43;;;;;;;5.45;4.07;;;48.50;26.80;;;;;;6158746;28;20299;-69
2023/08/22 13:10:44;;;;;;;4.38;4.00;;;48.40;27.20;;;;;;6158498;28;20223;-69
2023/08/22 13:13:44;;;;;;;4.28;3.95;;;48.60;26.10;;;;;;6151055;28;20197;-69
2023/08/22 13:16:45;;;;;;;4.28;3.97;;;48.80;27.00;;;;;;6156338;28;20239;-68
2023/08/22 13:19:46;;;;;;;4.32;3.92;;;48.50;24.90;;;;;;6155069;28;20285;-69
2023/08/22 13:22:46;;;;;;;4.30;4.00;;;47.90;24.80;;;;;;6157139;28;20237;-69
2023/08/22 13:25:47;;;;;;;3.80;3.50;;;48.00;25.70;;;;;;6140577;28;20189;-69
2023/08/22 13:28:50;;;;;;;4.30;3.95;;;48.30;25.80;;;;;;6154555;28;20194;-68
2023/08/22 13:31:50;;;;;;;4.72;3.55;;;48.00;23.80;;;;;;6155172;28;20219;-68
2023/08/22 13:34:51;;;;;;;4.22;3.88;;;47.20;23.60;;;;;;6144428;28;20180;-69
2023/08/22 13:37:52;;;;;;;5.35;4.82;;;47.20;24.60;;;;;;6149558;28;20218;-69
2023/08/22 13:40:52;;;;;;;4.93;4.53;;;47.60;25.90;;;;;;6159017;28;20235;-69
2023/08/22 13:43:53;;;;;;;5.05;4.75;;;47.30;25.30;;;;;;6165276;28;20250;-69
2023/08/22 13:46:54;;;;;;;5.80;4.45;;;46.70;25.30;;;;;;6154794;28;20207;-69
2023/08/22 13:49:54;;;;;;;5.45;4.53;;;45.90;24.70;;;;;;6159049;28;20200;-69
2023/08/22 13:52:55;;;;;;;5.38;5.07;;;45.70;27.00;;;;;;6153171;28;20212;-69
2023/08/22 13:55:56;;;;;;;5.28;4.78;;;45.80;27.00;;;;;;6145106;28;20208;-69
2023/08/22 13:58:57;;;;;;;5.40;5.00;;;45.70;27.80;;;;;;6154763;28;20224;-69
2023/08/22 14:01:58;;;;;;;5.55;5.10;;;40.80;29.70;;;;;;6147577;28;20196;-70
2023/08/22 14:04:58;;;;;;;6.85;5.13;;;44.90;28.80;;;;;;6153530;28;20187;-70
2023/08/22 14:08:00;;;;;;;6.50;6.00;;;;;;;;;;6162366;28;20239;-69
2023/08/22 14:11:01;;;;;;;6.35;5.65;;;;;;;;;;6156012;28;20208;-69
2023/08/22 14:14:02;;;;;;;6.55;5.70;;;;;;;;;;6154834;28;20204;-69
2023/08/22 14:17:03;;;;;;;6.05;5.57;;;;;;;;;;6162679;28;20193;-69
2023/08/22 14:20:04;;;;;;;6.07;5.57;;;;;;;;;;6161758;28;20192;-69
2023/08/22 14:23:05;;;;;;;6.18;5.68;;;;;;;;;;6161203;28;20291;-70
2023/08/22 14:26:06;;;;;;;5.28;4.95;;;;;;;;;;6170884;28;20202;-69
2023/08/22 14:29:07;;;;;;;7.10;6.23;;;;;;;;;;6157044;28;20250;-69
2023/08/22 14:32:08;;;;;;;6.30;5.70;;;;;;;;;;6155048;28;20208;-69
2023/08/22 14:35:10;;;;;;;5.23;4.83;;;;;;;;;;6152141;28;20189;-69
2023/08/22 14:38:11;;;;;;;5.97;5.47;;;;;;;;;;6170816;28;20199;-69
2023/08/22 14:41:12;;;;;;;6.57;6.07;;;;;;;;;;6170233;28;20212;-69
2023/08/22 14:44:13;;;;;;;6.30;5.80;;;;;;;;;;6165411;28;20291;-69
2023/08/22 14:47:15;;;;;;;9.20;6.20;;;;;;;;;;6157120;28;20193;-69
2023/08/22 14:50:16;;;;;;;6.20;5.70;;;;;;;;;;6157807;28;20204;-69
2023/08/22 14:53:19;;;;;;;6.10;5.50;;;;;;;;;;6153747;28;20212;-69
2023/08/22 14:56:20;;;;;;;6.57;6.00;;;;;;;;;;6171648;28;20193;-69
2023/08/22 14:59:23;;;;;;;6.43;5.93;;;;;;;;;;6155805;28;20192;-69
2023/08/22 15:02:24;;;;;;;6.27;5.80;;;;;;;;;;6168929;28;20192;-69
2023/08/22 15:05:25;;;;;;;6.37;5.87;;;;;;;;;;6154407;28;20192;-69
2023/08/22 15:08:26;;;;;;;7.90;7.30;;;;;;;;;;6163341;28;20219;-69
2023/08/22 15:11:27;;;;;;;8.27;7.23;;;;;;;;;;6156536;28;20307;-69
2023/08/22 15:14:28;;;;;;;7.87;7.27;;;;;;;;;;6149621;28;20193;-69
2023/08/22 15:17:29;;;;;;;8.03;7.33;;;;;;;;;;6167263;28;20215;-69
2023/08/22 15:20:30;;;;;;;7.80;7.00;;;;;;;;;;6170049;28;20193;-69
2023/08/22 15:23:32;;;;;;;8.13;7.33;;;;;;;;;;6168394;28;20191;-69
2023/08/22 15:26:33;;;;;;;8.40;7.60;;;;;;;;;;6167202;28;20204;-69
2023/08/22 15:29:34;;;;;;;8.17;7.50;;;;;;;;;;6157709;28;20204;-69
2023/08/22 15:32:35;;;;;;;8.80;8.10;;;;;;;;;;6156715;28;20412;-69
2023/08/22 15:35:43;;;;;;;8.90;8.20;;;;;;;;;;6157988;28;20192;-69
2023/08/22 15:38:44;;;;;;;8.17;7.57;;;;;;;;;;6184296;28;20216;-69
2023/08/22 15:41:45;;;;;;;7.97;7.37;;;;;;;;;;6155015;28;20276;-69
2023/08/22 15:44:46;;;;;;;7.80;7.30;;;;;;;;;;6163127;28;20247;-69
2023/08/22 15:47:47;;;;;;;9.73;7.60;;;;;;;;;;6165233;28;20200;-69
2023/08/22 15:50:49;;;;;;;7.90;7.30;;;;;;;;;;6169332;28;20283;-69
2023/08/22 15:53:50;;;;;;;7.10;6.50;;;35.70;45.60;;;;;;6160409;28;20196;-69
2023/08/22 15:56:50;;;;;;;7.60;6.97;;;35.70;45.20;;;;;;6159194;28;20196;-69
2023/08/22 15:59:51;;;;;;;7.90;7.20;;;35.40;46.50;;;;;;6165568;28;20200;-69
2023/08/22 16:02:52;;;;;;;8.33;7.63;;;35.50;47.00;;;;;;6166766;28;20204;-68
2023/08/22 16:05:57;;;;;;;8.70;6.57;;;35.10;46.80;;;;;;6161594;28;20292;-68
2023/08/22 16:08:57;;;;;;;6.87;6.37;;;35.00;47.80;;;;;;6172117;28;20189;-68
2023/08/22 16:11:58;;;;;;;7.17;6.40;;;34.70;47.50;;;;;;6168510;28;20208;-68
2023/08/22 16:14:59;;;;;;;7.20;6.60;;;34.60;47.50;;;;;;6174694;28;20184;-68
2023/08/22 16:17:59;;;;;;;7.00;6.40;;;34.30;47.90;;;;;;6140221;28;20189;-68
2023/08/22 16:21:00;;;;;;;6.63;6.13;;;34.00;48.30;;;;;;6169060;28;20189;-69
2023/08/22 16:24:01;;;;;;;7.57;6.73;;;33.90;48.70;;;;;;6153117;28;20209;-68
2023/08/22 16:27:01;;;;;;;7.70;6.93;;;33.80;50.40;;;;;;6170126;28;20181;-69
2023/08/22 16:30:03;;;;;;;7.07;6.47;;;33.60;50.60;;;;;;6157166;28;20195;-69
2023/08/22 16:33:03;;;;;;;7.03;6.37;;;33.40;51.20;;;;;;6173416;28;20274;-69
2023/08/22 16:36:05;;;;;;;7.03;6.43;;;33.20;51.70;;;;;;6157859;28;20180;-69
2023/08/22 16:39:06;;;;;;;7.20;6.60;;;33.00;51.60;;;;;;6161531;28;20197;-68
2023/08/22 16:42:07;;;;;;;6.60;6.00;;;32.80;51.40;;;;;;6166172;28;20196;-69
2023/08/22 16:45:08;;;;;;;6.70;6.10;;;32.60;51.90;;;;;;6137808;28;20196;-69
2023/08/22 16:48:09;;;;;;;6.43;5.93;;;32.50;52.30;;;;;;6169520;28;20223;-68
2023/08/22 16:51:10;;;;;;;6.57;5.97;;;32.40;51.90;;;;;;6175574;28;20216;-68
2023/08/22 16:54:13;;;;;;;7.00;6.50;;;;;;;;;;6158034;28;20195;-68
2023/08/22 16:57:14;;;;;;;7.23;6.63;;;;;;;;;;6159815;28;20212;-68
2023/08/22 17:00:19;;;;;;;7.77;7.17;;;;;;;;;;6158793;28;20200;-69